sensor_id;sensor_type;location;lat;lon;timestamp;pressure;altitude;pressure_sealevel;temperature;humidity
80186;BME280;69904;52.122;5.422;2023-11-18T00:01:38;102404.47;;;5.16;87.60
80186;BME280;69904;52.122;5.422;2023-11-18T00:04:04;102405.53;;;5.13;87.90
80186;BME280;69904;52.122;5.422;2023-11-18T00:06:32;102407.25;;;5.14;87.96
80186;BME280;69904;52.122;5.422;2023-11-18T00:08:58;102417.97;;;5.14;87.81
80186;BME280;69904;52.122;5.422;2023-11-18T00:11:25;102412.88;;;5.11;87.81
80186;BME280;69904;52.122;5.422;2023-11-18T00:13:51;102404.94;;;5.09;87.59
80186;BME280;69904;52.122;5.422;2023-11-18T00:16:18;102403.25;;;5.08;87.85
80186;BME280;69904;52.122;5.422;2023-11-18T00:18:45;102412.13;;;5.09;88.24
80186;BME280;69904;52.122;5.422;2023-11-18T00:21:11;102409.34;;;5.11;88.19
80186;BME280;69904;52.122;5.422;2023-11-18T00:23:39;102417.38;;;5.11;88.21
80186;BME280;69904;52.122;5.422;2023-11-18T00:26:05;102414.69;;;5.11;88.17
80186;BME280;69904;52.122;5.422;2023-11-18T00:28:33;102412.75;;;5.13;88.66
80186;BME280;69904;52.122;5.422;2023-11-18T00:30:59;102406.28;;;5.15;88.48
80186;BME280;69904;52.122;5.422;2023-11-18T00:33:26;102406.16;;;5.17;88.67
80186;BME280;69904;52.122;5.422;2023-11-18T00:35:53;102404.34;;;5.17;88.68
80186;BME280;69904;52.122;5.422;2023-11-18T00:38:20;102401.66;;;5.17;88.81
80186;BME280;69904;52.122;5.422;2023-11-18T00:40:46;102391.19;;;5.14;88.79
80186;BME280;69904;52.122;5.422;2023-11-18T00:43:13;102404.72;;;5.13;88.60
80186;BME280;69904;52.122;5.422;2023-11-18T00:45:39;102388.03;;;5.09;88.52
80186;BME280;69904;52.122;5.422;2023-11-18T00:48:07;102394.38;;;5.08;88.40
80186;BME280;69904;52.122;5.422;2023-11-18T00:50:34;102400.72;;;5.07;88.50
80186;BME280;69904;52.122;5.422;2023-11-18T00:53:01;102407.16;;;5.04;88.35
80186;BME280;69904;52.122;5.422;2023-11-18T00:55:27;102405.59;;;5.02;88.31
80186;BME280;69904;52.122;5.422;2023-11-18T00:57:54;102413.63;;;5.02;88.21
80186;BME280;69904;52.122;5.422;2023-11-18T01:00:20;102414.22;;;5.05;88.54
80186;BME280;69904;52.122;5.422;2023-11-18T01:02:48;102415.66;;;5.09;88.66
80186;BME280;69904;52.122;5.422;2023-11-18T01:05:16;102421.75;;;5.12;88.74
80186;BME280;69904;52.122;5.422;2023-11-18T01:07:42;102426.84;;;5.15;88.78
80186;BME280;69904;52.122;5.422;2023-11-18T01:10:10;102416.88;;;5.17;88.89
80186;BME280;69904;52.122;5.422;2023-11-18T01:12:37;102425.75;;;5.17;89.18
80186;BME280;69904;52.122;5.422;2023-11-18T01:15:04;102414.09;;;5.18;88.89
80186;BME280;69904;52.122;5.422;2023-11-18T01:17:30;102422.94;;;5.19;89.21
80186;BME280;69904;52.122;5.422;2023-11-18T01:19:58;102427.47;;;5.18;89.29
80186;BME280;69904;52.122;5.422;2023-11-18T01:22:25;102421.00;;;5.21;89.33
80186;BME280;69904;52.122;5.422;2023-11-18T01:24:51;102432.56;;;5.21;89.67
80186;BME280;69904;52.122;5.422;2023-11-18T01:27:17;102438.88;;;5.20;89.31
80186;BME280;69904;52.122;5.422;2023-11-18T01:29:45;102432.81;;;5.18;89.55
80186;BME280;69904;52.122;5.422;2023-11-18T01:32:13;102433.16;;;5.14;89.36
80186;BME280;69904;52.122;5.422;2023-11-18T01:34:40;102430.00;;;5.08;89.57
80186;BME280;69904;52.122;5.422;2023-11-18T01:37:07;102421.38;;;5.05;89.28
80186;BME280;69904;52.122;5.422;2023-11-18T01:39:34;102427.59;;;5.05;89.36
80186;BME280;69904;52.122;5.422;2023-11-18T01:42:00;102424.78;;;5.07;89.26
80186;BME280;69904;52.122;5.422;2023-11-18T01:44:30;102424.91;;;5.05;89.09
80186;BME280;69904;52.122;5.422;2023-11-18T01:46:58;102413.25;;;5.06;89.40
80186;BME280;69904;52.122;5.422;2023-11-18T01:49:26;102413.09;;;5.08;89.37
80186;BME280;69904;52.122;5.422;2023-11-18T01:51:55;102415.78;;;5.08;89.24
80186;BME280;69904;52.122;5.422;2023-11-18T01:54:23;102414.09;;;5.07;89.63
80186;BME280;69904;52.122;5.422;2023-11-18T01:56:50;102408.75;;;5.07;89.44
80186;BME280;69904;52.122;5.422;2023-11-18T01:59:18;102408.59;;;5.08;89.77
80186;BME280;69904;52.122;5.422;2023-11-18T02:01:47;102412.25;;;5.07;89.73
80186;BME280;69904;52.122;5.422;2023-11-18T02:04:16;102413.09;;;5.08;89.76
80186;BME280;69904;52.122;5.422;2023-11-18T02:06:43;102414.69;;;5.11;89.76
80186;BME280;69904;52.122;5.422;2023-11-18T02:09:11;102412.00;;;5.11;89.75
80186;BME280;69904;52.122;5.422;2023-11-18T02:14:32;102429.78;;;5.12;89.81
80186;BME280;69904;52.122;5.422;2023-11-18T02:17:05;102424.78;;;5.07;90.00
80186;BME280;69904;52.122;5.422;2023-11-18T02:19:32;102419.56;;;5.05;90.24
80186;BME280;69904;52.122;5.422;2023-11-18T02:22:01;102422.34;;;5.04;90.64
80186;BME280;69904;52.122;5.422;2023-11-18T02:24:29;102419.69;;;5.04;91.02
80186;BME280;69904;52.122;5.422;2023-11-18T02:26:58;102418.59;;;5.06;91.03
80186;BME280;69904;52.122;5.422;2023-11-18T02:29:25;102423.22;;;5.04;91.11
80186;BME280;69904;52.122;5.422;2023-11-18T02:31:58;102423.22;;;5.04;91.03
80186;BME280;69904;52.122;5.422;2023-11-18T02:34:30;102420.41;;;5.06;91.49
80186;BME280;69904;52.122;5.422;2023-11-18T02:36:58;102420.28;;;5.07;91.54
80186;BME280;69904;52.122;5.422;2023-11-18T02:39:35;102412.97;;;5.09;91.54
80186;BME280;69904;52.122;5.422;2023-11-18T02:42:07;102413.09;;;5.08;91.58
80186;BME280;69904;52.122;5.422;2023-11-18T02:44:37;102409.81;;;5.04;91.74
80186;BME280;69904;52.122;5.422;2023-11-18T02:47:05;102416.16;;;5.03;91.70
80186;BME280;69904;52.122;5.422;2023-11-18T02:49:34;102406.28;;;5.04;92.21
80186;BME280;69904;52.122;5.422;2023-11-18T02:52:01;102402.91;;;5.02;92.22
80186;BME280;69904;52.122;5.422;2023-11-18T02:54:28;102397.69;;;5.00;92.27
80186;BME280;69904;52.122;5.422;2023-11-18T02:56:55;102396.72;;;5.01;92.42
80186;BME280;69904;52.122;5.422;2023-11-18T02:59:22;102387.81;;;5.01;92.33
80186;BME280;69904;52.122;5.422;2023-11-18T03:01:53;102385.47;;;5.07;92.52
80186;BME280;69904;52.122;5.422;2023-11-18T03:04:20;102387.44;;;5.05;92.36
80186;BME280;69904;52.122;5.422;2023-11-18T03:06:46;102387.19;;;5.08;92.49
80186;BME280;69904;52.122;5.422;2023-11-18T03:09:13;102387.19;;;5.08;92.54
80186;BME280;69904;52.122;5.422;2023-11-18T03:11:40;102385.63;;;5.06;92.81
80186;BME280;69904;52.122;5.422;2023-11-18T03:14:06;102373.97;;;5.07;92.96
80186;BME280;69904;52.122;5.422;2023-11-18T03:16:38;102388.91;;;5.09;92.77
80186;BME280;69904;52.122;5.422;2023-11-18T03:19:05;102385.47;;;5.07;92.35
80186;BME280;69904;52.122;5.422;2023-11-18T03:21:33;102383.53;;;5.09;92.47
80186;BME280;69904;52.122;5.422;2023-11-18T03:23:59;102377.97;;;5.13;92.46
80186;BME280;69904;52.122;5.422;2023-11-18T03:26:26;102371.59;;;5.14;92.58
80186;BME280;69904;52.122;5.422;2023-11-18T03:28:52;102371.50;;;5.15;92.53
80186;BME280;69904;52.122;5.422;2023-11-18T03:31:19;102372.59;;;5.13;92.60
80186;BME280;69904;52.122;5.422;2023-11-18T03:33:46;102373.09;;;5.06;92.52
80186;BME280;69904;52.122;5.422;2023-11-18T03:36:12;102373.34;;;5.03;92.73
80186;BME280;69904;52.122;5.422;2023-11-18T03:38:39;102367.97;;;5.03;92.68
80186;BME280;69904;52.122;5.422;2023-11-18T03:41:05;102357.28;;;5.03;92.70
80186;BME280;69904;52.122;5.422;2023-11-18T03:43:34;102346.00;;;5.00;92.83
80186;BME280;69904;52.122;5.422;2023-11-18T03:46:01;102352.19;;;5.00;93.05
80186;BME280;69904;52.122;5.422;2023-11-18T03:48:27;102349.53;;;5.00;93.15
80186;BME280;69904;52.122;5.422;2023-11-18T03:50:54;102333.56;;;4.99;93.24
80186;BME280;69904;52.122;5.422;2023-11-18T03:53:20;102334.16;;;5.02;93.13
80186;BME280;69904;52.122;5.422;2023-11-18T03:55:46;102326.88;;;5.04;93.08
80186;BME280;69904;52.122;5.422;2023-11-18T03:58:13;102321.16;;;5.09;93.17
80186;BME280;69904;52.122;5.422;2023-11-18T04:00:39;102320.06;;;5.12;93.08
80186;BME280;69904;52.122;5.422;2023-11-18T04:03:06;102310.06;;;5.14;93.33
80186;BME280;69904;52.122;5.422;2023-11-18T04:05:33;102309.94;;;5.15;93.00
80186;BME280;69904;52.122;5.422;2023-11-18T04:08:01;102297.53;;;5.14;93.15
80186;BME280;69904;52.122;5.422;2023-11-18T04:10:27;102294.75;;;5.16;93.10
80186;BME280;69904;52.122;5.422;2023-11-18T04:12:54;102299.13;;;5.17;92.99
80186;BME280;69904;52.122;5.422;2023-11-18T04:15:20;102306.28;;;5.16;92.74
80186;BME280;69904;52.122;5.422;2023-11-18T04:17:46;102300.22;;;5.14;92.56
80186;BME280;69904;52.122;5.422;2023-11-18T04:20:13;102302.19;;;5.12;93.01
80186;BME280;69904;52.122;5.422;2023-11-18T04:22:43;102308.22;;;5.14;93.09
80186;BME280;69904;52.122;5.422;2023-11-18T04:25:10;102295.81;;;5.13;92.90
80186;BME280;69904;52.122;5.422;2023-11-18T04:27:38;102294.75;;;5.16;93.12
80186;BME280;69904;52.122;5.422;2023-11-18T04:30:05;102274.91;;;5.18;93.11
80186;BME280;69904;52.122;5.422;2023-11-18T04:32:32;102279.25;;;5.19;92.91
80186;BME280;69904;52.122;5.422;2023-11-18T04:34:59;102281.81;;;5.21;93.07
80186;BME280;69904;52.122;5.422;2023-11-18T04:37:36;102269.03;;;5.24;93.06
80186;BME280;69904;52.122;5.422;2023-11-18T04:40:03;102267.19;;;5.25;92.96
80186;BME280;69904;52.122;5.422;2023-11-18T04:42:30;102263.09;;;5.21;93.03
80186;BME280;69904;52.122;5.422;2023-11-18T04:44:57;102262.13;;;5.22;92.77
80186;BME280;69904;52.122;5.422;2023-11-18T04:47:24;102265.38;;;5.25;92.81
80186;BME280;69904;52.122;5.422;2023-11-18T04:49:51;102252.00;;;5.25;92.88
80186;BME280;69904;52.122;5.422;2023-11-18T04:52:18;102248.63;;;5.23;92.90
80186;BME280;69904;52.122;5.422;2023-11-18T04:54:45;102245.78;;;5.25;92.82
80186;BME280;69904;52.122;5.422;2023-11-18T04:57:14;102252.84;;;5.26;92.76
80186;BME280;69904;52.122;5.422;2023-11-18T04:59:42;102252.00;;;5.25;92.62
80186;BME280;69904;52.122;5.422;2023-11-18T05:02:09;102245.78;;;5.25;92.58
80186;BME280;69904;52.122;5.422;2023-11-18T05:04:36;102254.66;;;5.25;92.87
80186;BME280;69904;52.122;5.422;2023-11-18T05:07:03;102256.75;;;5.22;92.88
80186;BME280;69904;52.122;5.422;2023-11-18T05:09:30;102252.38;;;5.21;93.09
80186;BME280;69904;52.122;5.422;2023-11-18T05:11:58;102256.66;;;5.23;93.28
80186;BME280;69904;52.122;5.422;2023-11-18T05:14:24;102263.94;;;5.21;93.15
80186;BME280;69904;52.122;5.422;2023-11-18T05:16:52;102257.00;;;5.19;93.34
80186;BME280;69904;52.122;5.422;2023-11-18T05:19:18;102248.97;;;5.19;93.25
80186;BME280;69904;52.122;5.422;2023-11-18T05:21:45;102247.16;;;5.19;93.67
80186;BME280;69904;52.122;5.422;2023-11-18T05:24:15;102239.00;;;5.21;93.38
80186;BME280;69904;52.122;5.422;2023-11-18T05:26:41;102231.81;;;5.21;93.44
80186;BME280;69904;52.122;5.422;2023-11-18T05:29:08;102231.09;;;5.19;93.44
80186;BME280;69904;52.122;5.422;2023-11-18T05:31:34;102225.50;;;5.22;93.56
80186;BME280;69904;52.122;5.422;2023-11-18T05:34:01;102230.13;;;5.20;93.83
80186;BME280;69904;52.122;5.422;2023-11-18T05:36:29;102229.41;;;5.18;93.67
80186;BME280;69904;52.122;5.422;2023-11-18T05:39:03;102230.25;;;5.19;93.88
80186;BME280;69904;52.122;5.422;2023-11-18T05:41:31;102236.31;;;5.21;94.27
80186;BME280;69904;52.122;5.422;2023-11-18T05:43:58;102231.81;;;5.21;94.03
80186;BME280;69904;52.122;5.422;2023-11-18T05:46:25;102222.94;;;5.21;94.02
80186;BME280;69904;52.122;5.422;2023-11-18T05:48:55;102221.84;;;5.23;93.90
80186;BME280;69904;52.122;5.422;2023-11-18T05:51:25;102215.66;;;5.23;93.81
80186;BME280;69904;52.122;5.422;2023-11-18T05:53:52;102222.66;;;5.24;94.01
80186;BME280;69904;52.122;5.422;2023-11-18T05:56:19;102212.97;;;5.23;93.96
80186;BME280;69904;52.122;5.422;2023-11-18T05:58:48;102204.66;;;5.26;93.69
80186;BME280;69904;52.122;5.422;2023-11-18T06:01:15;102190.31;;;5.27;94.00
80186;BME280;69904;52.122;5.422;2023-11-18T06:03:43;102195.66;;;5.27;93.98
80186;BME280;69904;52.122;5.422;2023-11-18T06:06:12;102198.22;;;5.28;93.64
80186;BME280;69904;52.122;5.422;2023-11-18T06:08:39;102196.25;;;5.30;93.96
80186;BME280;69904;52.122;5.422;2023-11-18T06:11:12;102195.53;;;5.28;93.47
80186;BME280;69904;52.122;5.422;2023-11-18T06:13:44;102192.72;;;5.30;93.81
80186;BME280;69904;52.122;5.422;2023-11-18T06:16:23;102185.53;;;5.30;93.77
80186;BME280;69904;52.122;5.422;2023-11-18T06:18:56;102190.66;;;5.33;93.71
80186;BME280;69904;52.122;5.422;2023-11-18T06:21:25;102182.63;;;5.33;93.58
80186;BME280;69904;52.122;5.422;2023-11-18T06:23:54;102189.78;;;5.33;93.56
80186;BME280;69904;52.122;5.422;2023-11-18T06:26:21;102192.19;;;5.36;93.59
80186;BME280;69904;52.122;5.422;2023-11-18T06:28:48;102186.84;;;5.36;93.40
80186;BME280;69904;52.122;5.422;2023-11-18T06:31:17;102183.19;;;5.37;93.40
80186;BME280;69904;52.122;5.422;2023-11-18T06:33:45;102182.22;;;5.38;93.44
80186;BME280;69904;52.122;5.422;2023-11-18T06:38:49;102175.88;;;5.39;93.33
80186;BME280;69904;52.122;5.422;2023-11-18T06:41:17;102178.69;;;5.37;93.12
80186;BME280;69904;52.122;5.422;2023-11-18T06:43:45;102178.69;;;5.37;93.44
80186;BME280;69904;52.122;5.422;2023-11-18T06:46:32;102180.41;;;5.38;93.42
80186;BME280;69904;52.122;5.422;2023-11-18T06:49:06;102186.59;;;5.39;93.19
80186;BME280;69904;52.122;5.422;2023-11-18T06:51:37;102187.44;;;5.39;93.42
80186;BME280;69904;52.122;5.422;2023-11-18T06:54:05;102178.41;;;5.40;92.99
80186;BME280;69904;52.122;5.422;2023-11-18T06:56:38;102186.19;;;5.43;93.04
80186;BME280;69904;52.122;5.422;2023-11-18T06:59:08;102186.19;;;5.43;93.22
80186;BME280;69904;52.122;5.422;2023-11-18T07:01:36;102190.72;;;5.43;93.09
80186;BME280;69904;52.122;5.422;2023-11-18T07:04:03;102189.97;;;5.41;92.99
80186;BME280;69904;52.122;5.422;2023-11-18T07:06:30;102180.13;;;5.41;92.87
80186;BME280;69904;52.122;5.422;2023-11-18T07:08:57;102180.25;;;5.40;92.86
80186;BME280;69904;52.122;5.422;2023-11-18T07:11:27;102179.41;;;5.39;93.12
80186;BME280;69904;52.122;5.422;2023-11-18T07:13:54;102169.41;;;5.41;92.86
80186;BME280;69904;52.122;5.422;2023-11-18T07:16:24;102173.66;;;5.44;92.74
80186;BME280;69904;52.122;5.422;2023-11-18T07:18:51;102185.94;;;5.46;92.83
80186;BME280;69904;52.122;5.422;2023-11-18T07:21:18;102192.00;;;5.48;92.73
80186;BME280;69904;52.122;5.422;2023-11-18T07:23:45;102192.88;;;5.49;92.78
80186;BME280;69904;52.122;5.422;2023-11-18T07:26:11;102195.38;;;5.50;92.74
80186;BME280;69904;52.122;5.422;2023-11-18T07:28:39;102191.72;;;5.51;92.79
80186;BME280;69904;52.122;5.422;2023-11-18T07:31:06;102200.50;;;5.54;92.80
80186;BME280;69904;52.122;5.422;2023-11-18T07:33:34;102204.88;;;5.55;92.98
80186;BME280;69904;52.122;5.422;2023-11-18T07:36:00;102206.53;;;5.56;92.63
80186;BME280;69904;52.122;5.422;2023-11-18T07:38:29;102213.59;;;5.57;92.81
80186;BME280;69904;52.122;5.422;2023-11-18T07:40:57;102217.13;;;5.57;92.57
80186;BME280;69904;52.122;5.422;2023-11-18T07:43:24;102216.28;;;5.57;92.81
80186;BME280;69904;52.122;5.422;2023-11-18T07:45:50;102212.63;;;5.58;92.62
80186;BME280;69904;52.122;5.422;2023-11-18T07:48:19;102202.78;;;5.58;92.58
80186;BME280;69904;52.122;5.422;2023-11-18T07:50:47;102192.91;;;5.59;92.74
80186;BME280;69904;52.122;5.422;2023-11-18T07:53:13;102188.41;;;5.59;92.54
80186;BME280;69904;52.122;5.422;2023-11-18T07:55:40;102188.41;;;5.59;92.73
80186;BME280;69904;52.122;5.422;2023-11-18T07:58:10;102176.72;;;5.60;92.70
80186;BME280;69904;52.122;5.422;2023-11-18T08:00:40;102166.84;;;5.61;92.54
80186;BME280;69904;52.122;5.422;2023-11-18T08:03:08;102168.41;;;5.63;92.63
80186;BME280;69904;52.122;5.422;2023-11-18T08:05:39;102164.88;;;5.63;92.64
80186;BME280;69904;52.122;5.422;2023-11-18T08:08:12;102158.53;;;5.64;92.53
80186;BME280;69904;52.122;5.422;2023-11-18T08:10:39;102157.44;;;5.66;92.70
80186;BME280;69904;52.122;5.422;2023-11-18T08:13:07;102150.22;;;5.67;92.80
80186;BME280;69904;52.122;5.422;2023-11-18T08:15:38;102150.22;;;5.67;92.51
80186;BME280;69904;52.122;5.422;2023-11-18T08:18:06;102143.31;;;5.64;92.54
80186;BME280;69904;52.122;5.422;2023-11-18T08:20:33;102144.31;;;5.63;92.88
80186;BME280;69904;52.122;5.422;2023-11-18T08:23:00;102138.09;;;5.63;92.81
80186;BME280;69904;52.122;5.422;2023-11-18T08:25:26;102141.75;;;5.62;92.63
80186;BME280;69904;52.122;5.422;2023-11-18T08:27:53;102138.38;;;5.60;92.74
80186;BME280;69904;52.122;5.422;2023-11-18T08:30:19;102129.50;;;5.59;93.00
80186;BME280;69904;52.122;5.422;2023-11-18T08:32:47;102132.75;;;5.63;92.91
80186;BME280;69904;52.122;5.422;2023-11-18T08:35:14;102123.00;;;5.62;93.09
80186;BME280;69904;52.122;5.422;2023-11-18T08:37:42;102124.59;;;5.64;92.76
80186;BME280;69904;52.122;5.422;2023-11-18T08:40:10;102121.78;;;5.66;92.97
80186;BME280;69904;52.122;5.422;2023-11-18T08:45:15;102098.13;;;5.71;92.86
80186;BME280;69904;52.122;5.422;2023-11-18T08:47:43;102107.69;;;5.73;93.11
80186;BME280;69904;52.122;5.422;2023-11-18T08:50:10;102103.63;;;5.79;92.77
80186;BME280;69904;52.122;5.422;2023-11-18T08:52:39;102109.56;;;5.82;93.08
80186;BME280;69904;52.122;5.422;2023-11-18T08:55:10;102113.81;;;5.85;93.04
80186;BME280;69904;52.122;5.422;2023-11-18T08:57:48;102096.75;;;5.86;92.93
80186;BME280;69904;52.122;5.422;2023-11-18T09:00:28;102092.13;;;5.88;93.01
80186;BME280;69904;52.122;5.422;2023-11-18T09:03:28;102085.78;;;5.89;92.76
80186;BME280;69904;52.122;5.422;2023-11-18T09:05:56;102097.09;;;5.93;92.74
80186;BME280;69904;52.122;5.422;2023-11-18T09:08:35;102087.19;;;5.93;92.95
80186;BME280;69904;52.122;5.422;2023-11-18T09:11:03;102067.34;;;5.96;92.65
80186;BME280;69904;52.122;5.422;2023-11-18T09:13:34;102064.66;;;5.96;92.52
80186;BME280;69904;52.122;5.422;2023-11-18T09:16:05;102054.91;;;5.95;92.80
80186;BME280;69904;52.122;5.422;2023-11-18T09:18:36;102053.81;;;5.97;92.62
80186;BME280;69904;52.122;5.422;2023-11-18T09:21:08;102052.66;;;6.00;92.62
80186;BME280;69904;52.122;5.422;2023-11-18T09:23:42;102042.53;;;6.03;92.52
80186;BME280;69904;52.122;5.422;2023-11-18T09:26:09;102047.06;;;6.03;92.49
80186;BME280;69904;52.122;5.422;2023-11-18T09:28:37;102035.59;;;6.01;92.44
80186;BME280;69904;52.122;5.422;2023-11-18T09:31:05;102031.94;;;6.02;92.66
80186;BME280;69904;52.122;5.422;2023-11-18T09:33:33;102031.94;;;6.02;92.58
80186;BME280;69904;52.122;5.422;2023-11-18T09:36:06;102028.28;;;6.03;92.49
80186;BME280;69904;52.122;5.422;2023-11-18T09:38:39;102026.59;;;6.02;92.59
80186;BME280;69904;52.122;5.422;2023-11-18T09:41:12;102016.56;;;6.04;92.92
80186;BME280;69904;52.122;5.422;2023-11-18T09:43:41;102006.69;;;6.04;92.96
80186;BME280;69904;52.122;5.422;2023-11-18T09:46:17;101981.72;;;6.04;92.77
80186;BME280;69904;52.122;5.422;2023-11-18T09:48:50;101988.78;;;6.05;93.16
80186;BME280;69904;52.122;5.422;2023-11-18T09:51:24;101987.09;;;6.04;93.09
80186;BME280;69904;52.122;5.422;2023-11-18T09:53:52;101988.78;;;6.05;92.98
80186;BME280;69904;52.122;5.422;2023-11-18T09:59:20;101996.81;;;6.05;93.29
80186;BME280;69904;52.122;5.422;2023-11-18T10:01:53;101997.66;;;6.05;93.37
80186;BME280;69904;52.122;5.422;2023-11-18T10:04:25;101995.84;;;6.06;93.34
80186;BME280;69904;52.122;5.422;2023-11-18T10:06:54;101986.09;;;6.05;93.41
80186;BME280;69904;52.122;5.422;2023-11-18T10:09:26;102001.34;;;6.04;93.81
80186;BME280;69904;52.122;5.422;2023-11-18T10:12:07;101995.84;;;6.06;93.87
80186;BME280;69904;52.122;5.422;2023-11-18T10:14:35;101981.47;;;6.07;93.90
80186;BME280;69904;52.122;5.422;2023-11-18T10:17:05;101979.50;;;6.09;94.03
80186;BME280;69904;52.122;5.422;2023-11-18T10:19:55;101982.31;;;6.07;94.24
80186;BME280;69904;52.122;5.422;2023-11-18T10:22:27;101975.97;;;6.08;94.25
80186;BME280;69904;52.122;5.422;2023-11-18T10:24:56;101982.88;;;6.11;94.35
80186;BME280;69904;52.122;5.422;2023-11-18T10:27:24;101976.66;;;6.10;94.19
80186;BME280;69904;52.122;5.422;2023-11-18T10:29:58;101984.56;;;6.12;94.24
80186;BME280;69904;52.122;5.422;2023-11-18T10:32:29;101987.13;;;6.13;94.49
80186;BME280;69904;52.122;5.422;2023-11-18T10:34:57;101985.28;;;6.14;94.17
80186;BME280;69904;52.122;5.422;2023-11-18T10:37:27;101972.72;;;6.14;94.38
80186;BME280;69904;52.122;5.422;2023-11-18T10:39:57;101961.84;;;6.16;94.53
80186;BME280;69904;52.122;5.422;2023-11-18T10:42:27;101947.59;;;6.15;94.89
80186;BME280;69904;52.122;5.422;2023-11-18T10:44:57;101955.50;;;6.17;94.70
80186;BME280;69904;52.122;5.422;2023-11-18T10:47:28;101940.28;;;6.17;94.92
80186;BME280;69904;52.122;5.422;2023-11-18T10:49:55;101935.63;;;6.19;95.08
80186;BME280;69904;52.122;5.422;2023-11-18T10:52:23;101936.44;;;6.20;95.23
80186;BME280;69904;52.122;5.422;2023-11-18T10:54:50;101938.13;;;6.21;94.97
80186;BME280;69904;52.122;5.422;2023-11-18T10:57:21;101930.94;;;6.21;94.89
80186;BME280;69904;52.122;5.422;2023-11-18T11:00:01;101923.88;;;6.20;95.14
80186;BME280;69904;52.122;5.422;2023-11-18T11:02:32;101915.00;;;6.20;95.26
80186;BME280;69904;52.122;5.422;2023-11-18T11:05:06;101908.81;;;6.19;95.19
80186;BME280;69904;52.122;5.422;2023-11-18T11:07:32;101906.16;;;6.19;95.60
80186;BME280;69904;52.122;5.422;2023-11-18T11:10:00;101906.69;;;6.23;95.56
80186;BME280;69904;52.122;5.422;2023-11-18T11:12:36;101904.72;;;6.25;95.93
80186;BME280;69904;52.122;5.422;2023-11-18T11:15:18;101910.22;;;6.23;95.59
80186;BME280;69904;52.122;5.422;2023-11-18T11:17:52;101899.19;;;6.26;96.06
80186;BME280;69904;52.122;5.422;2023-11-18T11:20:22;101876.91;;;6.26;95.85
80186;BME280;69904;52.122;5.422;2023-11-18T11:31:31;101795.63;;;6.35;96.25
80186;BME280;69904;52.122;5.422;2023-11-18T11:34:02;101777.53;;;6.37;96.14
80186;BME280;69904;52.122;5.422;2023-11-18T11:36:53;101776.41;;;6.40;96.04
80186;BME280;69904;52.122;5.422;2023-11-18T11:39:21;101774.56;;;6.40;96.27
80186;BME280;69904;52.122;5.422;2023-11-18T11:41:56;101774.28;;;6.43;96.33
80186;BME280;69904;52.122;5.422;2023-11-18T11:44:24;101777.81;;;6.44;96.44
80186;BME280;69904;52.122;5.422;2023-11-18T11:47:00;101763.41;;;6.45;96.75
80186;BME280;69904;52.122;5.422;2023-11-18T11:49:39;101765.78;;;6.48;96.66
80186;BME280;69904;52.122;5.422;2023-11-18T11:52:18;101771.00;;;6.49;96.64
80186;BME280;69904;52.122;5.422;2023-11-18T11:55:00;101749.25;;;6.52;96.68
80186;BME280;69904;52.122;5.422;2023-11-18T11:57:32;101723.97;;;6.55;96.61
80186;BME280;69904;52.122;5.422;2023-11-18T12:00:09;101716.63;;;6.57;96.86
80186;BME280;69904;52.122;5.422;2023-11-18T12:02:52;101719.00;;;6.60;96.67
80186;BME280;69904;52.122;5.422;2023-11-18T12:05:25;101714.34;;;6.62;97.03
80186;BME280;69904;52.122;5.422;2023-11-18T12:07:53;101715.19;;;6.62;96.73
80186;BME280;69904;52.122;5.422;2023-11-18T12:10:27;101705.13;;;6.64;97.18
80186;BME280;69904;52.122;5.422;2023-11-18T12:13:10;101696.81;;;6.67;97.06
80186;BME280;69904;52.122;5.422;2023-11-18T12:15:54;101682.09;;;6.71;96.95
80186;BME280;69904;52.122;5.422;2023-11-18T12:18:21;101679.66;;;6.78;96.68
80186;BME280;69904;52.122;5.422;2023-11-18T12:20:48;101674.94;;;6.80;97.06
80186;BME280;69904;52.122;5.422;2023-11-18T12:23:20;101670.28;;;6.82;96.89
80186;BME280;69904;52.122;5.422;2023-11-18T12:25:51;101662.09;;;6.84;96.78
80186;BME280;69904;52.122;5.422;2023-11-18T12:28:25;101660.22;;;6.84;96.82
80186;BME280;69904;52.122;5.422;2023-11-18T12:30:57;101642.28;;;6.85;97.12
80186;BME280;69904;52.122;5.422;2023-11-18T12:33:25;101614.31;;;6.87;96.91
80186;BME280;69904;52.122;5.422;2023-11-18T12:42:01;101619.22;;;6.92;97.22
80186;BME280;69904;52.122;5.422;2023-11-18T12:44:37;101613.00;;;6.91;97.00
80186;BME280;69904;52.122;5.422;2023-11-18T12:47:06;101613.72;;;6.93;97.23
80186;BME280;69904;52.122;5.422;2023-11-18T12:49:41;101589.56;;;6.93;97.25
80186;BME280;69904;52.122;5.422;2023-11-18T12:52:09;101618.09;;;6.94;97.46
80186;BME280;69904;52.122;5.422;2023-11-18T12:54:36;101590.41;;;6.94;97.21
80186;BME280;69904;52.122;5.422;2023-11-18T12:57:10;101535.88;;;6.93;97.64
80186;BME280;69904;52.122;5.422;2023-11-18T12:59:41;101480.38;;;6.94;97.42
80186;BME280;69904;52.122;5.422;2023-11-18T13:02:08;101468.63;;;6.95;97.71
80186;BME280;69904;52.122;5.422;2023-11-18T13:04:40;101483.72;;;6.96;97.65
80186;BME280;69904;52.122;5.422;2023-11-18T13:07:07;101481.91;;;6.96;97.83
80186;BME280;69904;52.122;5.422;2023-11-18T13:09:37;101466.63;;;6.97;97.93
80186;BME280;69904;52.122;5.422;2023-11-18T13:12:05;101493.31;;;6.98;97.89
80186;BME280;69904;52.122;5.422;2023-11-18T13:14:35;101483.44;;;6.99;97.80
80186;BME280;69904;52.122;5.422;2023-11-18T13:17:03;101491.47;;;6.99;97.86
80186;BME280;69904;52.122;5.422;2023-11-18T13:19:35;101489.47;;;7.01;98.26
80186;BME280;69904;52.122;5.422;2023-11-18T13:22:02;101495.53;;;7.03;97.99
80186;BME280;69904;52.122;5.422;2023-11-18T13:24:35;101501.75;;;7.03;98.05
80186;BME280;69904;52.122;5.422;2023-11-18T13:27:08;101497.03;;;7.05;98.18
80186;BME280;69904;52.122;5.422;2023-11-18T13:29:37;101478.44;;;7.04;98.11
80186;BME280;69904;52.122;5.422;2023-11-18T13:32:06;101477.44;;;7.05;98.00
80186;BME280;69904;52.122;5.422;2023-11-18T13:34:33;101478.25;;;7.05;98.10
80186;BME280;69904;52.122;5.422;2023-11-18T13:37:03;101469.19;;;7.06;98.01